createdAt,value
2023-03-18T00:02:02.341Z,24.00
2023-03-18T00:04:29.572Z,23.20
2023-03-18T00:06:57.372Z,21.60
2023-03-18T00:09:24.218Z,28.10
2023-03-18T00:11:51.054Z,21.80
2023-03-18T00:14:17.900Z,20.00
2023-03-18T00:16:44.951Z,22.10
2023-03-18T00:19:11.790Z,24.70
2023-03-18T00:21:38.832Z,23.70
2023-03-18T00:24:06.088Z,22.70
2023-03-18T00:26:32.773Z,21.50
2023-03-18T00:29:00.509Z,27.30
2023-03-18T00:31:29.096Z,27.90
2023-03-18T00:33:59.403Z,28.80
2023-03-18T00:36:26.658Z,25.30
2023-03-18T00:38:57.735Z,22.50
2023-03-18T00:41:28.445Z,24.90
2023-03-18T00:43:56.192Z,20.20
2023-03-18T00:46:30.982Z,19.60
2023-03-18T00:49:00.524Z,21.30
2023-03-18T00:51:28.346Z,19.00
2023-03-18T00:53:56.659Z,20.80
2023-03-18T00:56:26.572Z,19.50
2023-03-18T00:58:54.252Z,21.40
2023-03-18T01:01:21.763Z,22.10
2023-03-18T01:03:51.889Z,22.50
2023-03-18T01:06:23.162Z,27.10
2023-03-18T01:08:50.412Z,25.50
2023-03-18T01:11:17.337Z,26.40
2023-03-18T01:13:44.802Z,26.50
2023-03-18T01:16:11.977Z,20.70
2023-03-18T01:18:39.218Z,23.70
2023-03-18T01:21:06.088Z,26.00
2023-03-18T01:23:36.178Z,23.80
2023-03-18T01:26:03.645Z,27.30
2023-03-18T01:28:32.112Z,28.80
2023-03-18T01:31:00.149Z,29.80
2023-03-18T01:33:28.059Z,31.10
2023-03-18T01:35:55.936Z,28.00
2023-03-18T01:38:25.018Z,26.10
2023-03-18T01:40:52.884Z,28.20
2023-03-18T01:43:21.463Z,28.60
2023-03-18T01:45:50.210Z,25.60
2023-03-18T01:48:19.144Z,24.70
2023-03-18T01:50:48.241Z,26.90
2023-03-18T01:53:16.783Z,24.50
2023-03-18T01:55:45.418Z,23.50
2023-03-18T01:58:24.737Z,28.90
2023-03-18T02:00:55.890Z,23.10
2023-03-18T02:03:22.725Z,27.30
2023-03-18T02:05:50.586Z,21.20
2023-03-18T02:08:18.247Z,19.80
2023-03-18T02:10:45.704Z,17.60
2023-03-18T02:13:13.987Z,17.00
2023-03-18T02:16:07.255Z,17.10
2023-03-18T02:18:39.209Z,23.10
2023-03-18T02:21:09.080Z,18.90
2023-03-18T02:23:46.822Z,20.20
2023-03-18T02:26:19.232Z,16.40
2023-03-18T02:28:46.456Z,12.60
2023-03-18T02:31:14.541Z,13.30
2023-03-18T02:33:43.008Z,12.90
2023-03-18T02:36:12.092Z,11.90
2023-03-18T02:38:43.236Z,9.80
2023-03-18T02:41:14.790Z,10.40
2023-03-18T02:43:42.864Z,11.90
2023-03-18T02:46:20.179Z,11.60
2023-03-18T02:48:49.268Z,10.60
2023-03-18T02:51:16.957Z,12.00
2023-03-18T02:53:44.225Z,10.70
2023-03-18T02:56:12.633Z,10.70
2023-03-18T02:58:40.916Z,12.70
2023-03-18T03:01:09.647Z,15.30
2023-03-18T03:03:36.873Z,13.00
2023-03-18T03:06:04.478Z,14.20
2023-03-18T03:08:32.048Z,19.60
2023-03-18T03:10:59.225Z,15.90
2023-03-18T03:13:28.111Z,12.20
2023-03-18T03:15:56.274Z,14.90
2023-03-18T03:18:23.233Z,13.70
2023-03-18T03:20:51.305Z,15.00
2023-03-18T03:23:20.494Z,11.70
2023-03-18T03:25:49.487Z,13.70
2023-03-18T03:28:17.151Z,14.90
2023-03-18T03:30:44.886Z,13.90
2023-03-18T03:33:11.897Z,11.80
2023-03-18T03:35:40.580Z,11.00
2023-03-18T03:38:08.206Z,10.40
2023-03-18T03:40:35.136Z,12.80
2023-03-18T03:43:01.892Z,9.60
2023-03-18T03:45:29.558Z,10.40
2023-03-18T03:47:56.602Z,9.80
2023-03-18T03:50:23.857Z,11.00
2023-03-18T03:52:50.620Z,10.80
2023-03-18T03:55:19.514Z,11.60
2023-03-18T03:57:47.366Z,9.30
2023-03-18T04:00:16.753Z,9.90
2023-03-18T04:02:49.311Z,9.70
2023-03-18T04:05:18.229Z,12.00
2023-03-18T04:07:46.031Z,11.50
2023-03-18T04:10:14.958Z,9.30
2023-03-18T04:12:42.223Z,8.00
2023-03-18T04:15:09.888Z,9.30
2023-03-18T04:17:36.944Z,11.60
2023-03-18T04:20:05.825Z,12.40
2023-03-18T04:22:33.120Z,14.70
2023-03-18T04:25:01.841Z,10.80
2023-03-18T04:27:30.177Z,13.50
2023-03-18T04:29:58.161Z,12.00
2023-03-18T04:32:29.975Z,11.60
2023-03-18T04:34:57.937Z,9.00
2023-03-18T04:37:24.672Z,11.00
2023-03-18T04:39:54.372Z,12.50
2023-03-18T04:42:21.302Z,13.00
2023-03-18T04:44:48.076Z,104.90
2023-03-18T04:47:15.635Z,153.00
2023-03-18T04:49:44.327Z,65.60
2023-03-18T04:52:12.801Z,46.90
2023-03-18T04:54:40.258Z,29.10
2023-03-18T04:57:07.710Z,18.00
2023-03-18T04:59:37.836Z,15.50
2023-03-18T05:02:06.115Z,14.20
2023-03-18T05:04:33.968Z,10.80
2023-03-18T05:07:01.015Z,13.10
2023-03-18T05:09:31.675Z,14.60
2023-03-18T05:11:58.814Z,9.80
2023-03-18T05:14:30.356Z,11.00
2023-03-18T05:16:57.825Z,10.30
2023-03-18T05:19:48.013Z,16.30
2023-03-18T05:22:19.660Z,14.90
2023-03-18T05:24:49.060Z,15.30
2023-03-18T05:27:17.291Z,14.10
2023-03-18T05:29:46.506Z,18.00
2023-03-18T05:32:25.724Z,19.80
2023-03-18T05:34:57.112Z,18.10
2023-03-18T05:37:24.629Z,17.10
2023-03-18T05:39:58.730Z,15.70
2023-03-18T05:42:25.841Z,16.30
2023-03-18T05:44:54.435Z,17.40
2023-03-18T05:47:23.002Z,17.00
2023-03-18T05:50:14.635Z,16.90
2023-03-18T05:52:41.642Z,17.40
2023-03-18T05:55:15.270Z,18.30
2023-03-18T05:57:43.539Z,17.20
2023-03-18T06:00:10.920Z,18.80
2023-03-18T06:02:44.912Z,19.60
2023-03-18T06:05:12.885Z,19.00
2023-03-18T06:07:39.927Z,18.60
2023-03-18T06:10:08.218Z,16.20
2023-03-18T06:12:36.267Z,17.00
2023-03-18T06:15:03.910Z,19.30
2023-03-18T06:17:32.007Z,21.50
2023-03-18T06:19:59.469Z,22.60
2023-03-18T06:22:27.096Z,23.90
2023-03-18T06:24:54.707Z,21.30
2023-03-18T06:27:22.380Z,18.60
2023-03-18T06:29:54.617Z,19.90
2023-03-18T06:32:21.850Z,21.90
2023-03-18T06:34:48.705Z,19.60
2023-03-18T06:37:16.781Z,18.90
2023-03-18T06:39:45.061Z,18.50
2023-03-18T06:42:12.791Z,22.10
2023-03-18T06:44:55.061Z,23.40
2023-03-18T06:47:27.904Z,18.60
2023-03-18T06:49:57.000Z,19.50
2023-03-18T06:52:29.171Z,21.30
2023-03-18T06:55:00.689Z,23.60
2023-03-18T06:57:29.209Z,17.10
2023-03-18T06:59:57.480Z,18.90
2023-03-18T07:02:25.305Z,17.30
2023-03-18T07:04:53.328Z,22.90
2023-03-18T07:07:20.253Z,22.10
2023-03-18T07:09:47.113Z,19.70
2023-03-18T07:12:14.351Z,18.40
2023-03-18T07:14:42.188Z,19.40
2023-03-18T07:17:10.771Z,16.50
2023-03-18T07:19:39.864Z,16.60
2023-03-18T07:22:06.836Z,19.20
2023-03-18T07:24:33.892Z,18.40
2023-03-18T07:27:00.731Z,18.10
2023-03-18T07:29:27.901Z,17.90
2023-03-18T07:31:55.243Z,16.50
2023-03-18T07:34:22.814Z,19.40
2023-03-18T07:36:49.734Z,18.90
2023-03-18T07:39:16.582Z,14.90
2023-03-18T07:41:43.360Z,16.90
2023-03-18T07:44:12.316Z,17.50
2023-03-18T07:46:39.174Z,15.00
2023-03-18T07:49:05.999Z,15.40
2023-03-18T07:51:32.855Z,13.50
2023-03-18T07:53:59.887Z,18.00
2023-03-18T07:56:27.540Z,17.20
2023-03-18T07:58:54.249Z,16.50
2023-03-18T08:01:21.237Z,18.60
2023-03-18T08:03:48.025Z,14.90
2023-03-18T08:06:15.965Z,16.70
2023-03-18T08:08:43.810Z,19.10
2023-03-18T08:11:11.072Z,74.30
2023-03-18T08:13:39.136Z,45.60
2023-03-18T08:16:06.719Z,22.90
2023-03-18T08:18:33.592Z,11.40
2023-03-18T08:21:00.709Z,12.40
2023-03-18T08:23:27.524Z,11.50
2023-03-18T08:25:54.389Z,34.20
2023-03-18T08:28:21.302Z,16.80
2023-03-18T08:30:48.905Z,13.00
2023-03-18T08:33:16.065Z,16.20
2023-03-18T08:35:43.033Z,17.00
2023-03-18T08:38:10.217Z,11.50
2023-03-18T08:40:37.468Z,10.80
2023-03-18T08:43:04.176Z,13.50
2023-03-18T08:45:31.258Z,11.70
2023-03-18T08:47:58.762Z,11.40
2023-03-18T08:50:28.731Z,10.60
2023-03-18T08:52:59.264Z,15.80
2023-03-18T08:55:31.222Z,43.00
2023-03-18T08:57:58.884Z,13.00
2023-03-18T09:00:27.024Z,11.10
2023-03-18T09:02:54.077Z,12.10
2023-03-18T09:05:21.350Z,11.00
2023-03-18T09:07:48.507Z,13.20
2023-03-18T09:10:17.311Z,12.70
2023-03-18T09:12:46.699Z,11.10
2023-03-18T09:15:15.177Z,8.60
2023-03-18T09:17:56.643Z,19.00
2023-03-18T09:20:28.964Z,11.40
2023-03-18T09:22:56.183Z,11.80
2023-03-18T09:25:23.033Z,11.30
2023-03-18T09:27:49.860Z,35.30
2023-03-18T09:30:16.940Z,12.40
2023-03-18T09:32:45.194Z,15.00
2023-03-18T09:35:13.368Z,11.20
2023-03-18T09:37:40.921Z,12.70
2023-03-18T09:40:08.790Z,12.10
2023-03-18T09:42:56.726Z,13.80
2023-03-18T09:45:42.355Z,15.80
2023-03-18T09:48:28.097Z,11.20
2023-03-18T09:51:01.404Z,10.80
2023-03-18T09:53:35.699Z,12.30
2023-03-18T09:56:03.365Z,11.50
2023-03-18T09:58:52.525Z,11.50
2023-03-18T10:01:20.864Z,12.20
2023-03-18T10:03:54.687Z,12.50
2023-03-18T10:06:22.882Z,11.40
2023-03-18T10:08:49.724Z,15.30
2023-03-18T10:11:36.712Z,10.80
2023-03-18T10:14:22.670Z,8.40
2023-03-18T10:17:09.647Z,9.20
2023-03-18T10:19:37.931Z,7.90
2023-03-18T10:22:07.965Z,7.30
2023-03-18T10:24:41.032Z,8.00
2023-03-18T10:27:14.027Z,11.50
2023-03-18T10:29:40.869Z,9.00
2023-03-18T10:32:10.778Z,7.50
2023-03-18T10:34:42.127Z,11.60
2023-03-18T10:37:15.113Z,7.30
2023-03-18T10:39:42.365Z,8.60
2023-03-18T10:42:20.845Z,9.20
2023-03-18T10:44:48.133Z,7.80
2023-03-18T10:47:21.162Z,6.60
2023-03-18T10:50:06.396Z,6.30
2023-03-18T10:52:57.207Z,6.20
2023-03-18T10:55:26.089Z,5.10
2023-03-18T10:57:53.137Z,4.10
2023-03-18T11:00:28.591Z,4.80
2023-03-18T11:02:57.106Z,11.10
2023-03-18T11:05:34.130Z,6.50
2023-03-18T11:08:06.434Z,15.50
2023-03-18T11:10:37.129Z,4.20
2023-03-18T11:13:04.091Z,6.20
2023-03-18T11:15:36.516Z,4.00
2023-03-18T11:18:04.345Z,4.70
2023-03-18T11:20:37.505Z,25.60
2023-03-18T11:23:14.639Z,12.50
2023-03-18T11:25:45.536Z,6.20
2023-03-18T11:28:28.362Z,4.40
2023-03-18T11:30:56.632Z,4.50
2023-03-18T11:33:30.440Z,5.00
2023-03-18T11:36:05.272Z,7.40
2023-03-18T11:38:34.462Z,4.00
2023-03-18T11:41:11.641Z,5.00
2023-03-18T11:43:38.793Z,7.30
2023-03-18T11:46:08.198Z,8.70
2023-03-18T11:48:39.551Z,5.40
2023-03-18T11:51:06.391Z,8.90
2023-03-18T11:53:36.837Z,7.50
2023-03-18T11:56:19.188Z,9.90
2023-03-18T11:58:48.979Z,8.30
2023-03-18T12:01:42.059Z,7.00
2023-03-18T12:04:24.205Z,7.20
2023-03-18T12:06:57.137Z,6.70
2023-03-18T12:09:44.886Z,6.80
2023-03-18T12:12:24.534Z,6.40
2023-03-18T12:15:04.176Z,6.20
2023-03-18T12:17:47.051Z,5.40
2023-03-18T12:20:16.505Z,10.20
2023-03-18T12:23:09.625Z,7.70
2023-03-18T12:25:43.615Z,4.50
2023-03-18T12:28:30.163Z,4.50
2023-03-18T12:30:59.790Z,4.40
2023-03-18T12:33:29.582Z,5.80
2023-03-18T12:35:59.717Z,4.40
2023-03-18T12:38:41.878Z,5.20
2023-03-18T12:41:08.564Z,3.30
2023-03-18T12:43:44.189Z,4.30
2023-03-18T12:46:18.205Z,4.70
2023-03-18T12:48:51.811Z,6.80
2023-03-18T12:51:23.099Z,3.40
2023-03-18T12:53:55.317Z,3.40
2023-03-18T12:56:28.230Z,4.30
2023-03-18T12:59:06.954Z,3.60
2023-03-18T13:01:39.032Z,4.10
2023-03-18T13:04:13.770Z,4.30
2023-03-18T13:06:52.008Z,4.50
2023-03-18T13:09:32.067Z,4.10
2023-03-18T13:12:04.906Z,3.50
2023-03-18T13:14:39.505Z,10.30
2023-03-18T13:17:09.087Z,4.30
2023-03-18T13:19:36.487Z,3.50
2023-03-18T13:22:11.598Z,4.50
2023-03-18T13:24:44.806Z,4.50
2023-03-18T13:27:21.246Z,5.40
2023-03-18T13:29:53.964Z,4.40
2023-03-18T13:32:24.677Z,5.80
2023-03-18T13:35:06.449Z,5.80
2023-03-18T13:37:52.193Z,4.60
2023-03-18T13:40:38.800Z,6.80
2023-03-18T13:43:11.936Z,7.40
2023-03-18T13:45:41.483Z,5.00
2023-03-18T13:48:14.131Z,7.40
2023-03-18T13:50:43.392Z,6.30
2023-03-18T13:53:25.222Z,4.60
2023-03-18T13:55:53.630Z,5.40
2023-03-18T13:58:40.657Z,6.70
2023-03-18T14:01:16.700Z,7.40
2023-03-18T14:03:45.047Z,7.40
2023-03-18T14:06:15.801Z,6.70
2023-03-18T14:08:42.954Z,8.10
2023-03-18T14:11:26.153Z,5.80
2023-03-18T14:14:03.173Z,5.50
2023-03-18T14:16:37.988Z,5.80
2023-03-18T14:19:19.445Z,6.10
2023-03-18T14:22:06.095Z,8.20
2023-03-18T14:24:33.173Z,6.90
2023-03-18T14:26:59.994Z,8.20
2023-03-18T14:29:31.422Z,6.00
2023-03-18T14:32:02.617Z,5.80
2023-03-18T14:34:32.414Z,6.90
2023-03-18T14:36:59.893Z,6.60
2023-03-18T14:39:36.287Z,5.30
2023-03-18T14:42:05.255Z,6.70
2023-03-18T14:44:43.523Z,7.20
2023-03-18T14:47:38.942Z,6.90
2023-03-18T14:50:14.940Z,6.30
2023-03-18T14:52:43.338Z,6.60
2023-03-18T14:55:25.833Z,7.20
2023-03-18T14:57:52.792Z,7.50
2023-03-18T15:00:21.994Z,4.70
2023-03-18T15:02:52.908Z,5.20
2023-03-18T15:05:22.817Z,5.30
2023-03-18T15:07:51.414Z,5.40
2023-03-18T15:10:29.774Z,5.50
2023-03-18T15:13:04.845Z,6.00
2023-03-18T15:15:32.623Z,6.20
2023-03-18T15:18:04.478Z,7.60
2023-03-18T15:20:34.576Z,6.90
2023-03-18T15:23:02.243Z,6.40
2023-03-18T15:25:29.012Z,7.20
2023-03-18T15:27:55.734Z,6.00
2023-03-18T15:30:27.809Z,7.40
2023-03-18T15:33:18.208Z,7.50
2023-03-18T15:35:46.259Z,8.90
2023-03-18T15:38:16.471Z,6.60
2023-03-18T15:41:02.417Z,10.10
2023-03-18T15:43:32.941Z,8.60
2023-03-18T15:46:01.084Z,5.60
2023-03-18T15:48:31.758Z,7.60
2023-03-18T15:51:00.840Z,8.90
2023-03-18T15:53:30.337Z,12.30
2023-03-18T15:55:58.784Z,10.30
2023-03-18T15:58:34.738Z,10.10
2023-03-18T16:01:02.190Z,8.40
2023-03-18T16:03:32.462Z,8.60
2023-03-18T16:05:59.508Z,9.50
2023-03-18T16:08:26.301Z,7.80
2023-03-18T16:10:55.001Z,10.50
2023-03-18T16:13:23.920Z,9.90
2023-03-18T16:15:51.601Z,10.50
2023-03-18T16:18:19.450Z,11.70
2023-03-18T16:20:47.260Z,17.00
2023-03-18T16:23:15.806Z,12.40
2023-03-18T16:25:44.083Z,10.80
2023-03-18T16:28:31.152Z,10.50
2023-03-18T16:30:58.165Z,9.20
2023-03-18T16:33:25.693Z,6.50
2023-03-18T16:35:58.949Z,6.60
2023-03-18T16:38:26.565Z,12.50
2023-03-18T16:40:54.984Z,8.30
2023-03-18T16:43:23.924Z,7.20
2023-03-18T16:45:51.208Z,7.30
2023-03-18T16:48:18.938Z,6.90
2023-03-18T16:50:48.347Z,11.30
2023-03-18T16:53:20.625Z,6.50
2023-03-18T16:55:49.186Z,11.10
2023-03-18T16:58:19.738Z,146.50
2023-03-18T17:00:49.244Z,78.60
2023-03-18T17:03:18.293Z,32.00
2023-03-18T17:05:46.513Z,20.70
2023-03-18T17:08:13.614Z,23.30
2023-03-18T17:10:42.612Z,12.80
2023-03-18T17:13:17.958Z,13.00
2023-03-18T17:15:45.934Z,9.10
2023-03-18T17:18:15.763Z,9.10
2023-03-18T17:20:44.219Z,8.10
2023-03-18T17:23:17.795Z,8.90
2023-03-18T17:25:52.861Z,9.10
2023-03-18T17:28:24.838Z,8.80
2023-03-18T17:30:52.443Z,9.80
2023-03-18T17:33:24.415Z,9.70
2023-03-18T17:35:54.070Z,9.20
2023-03-18T17:38:21.821Z,8.90
2023-03-18T17:40:49.506Z,12.20
2023-03-18T17:43:23.067Z,9.60
2023-03-18T17:45:51.592Z,18.20
2023-03-18T17:48:21.901Z,13.10
2023-03-18T17:50:54.661Z,15.00
2023-03-18T17:53:21.935Z,8.30
2023-03-18T17:55:50.615Z,13.40
2023-03-18T17:58:18.629Z,14.10
2023-03-18T18:00:47.483Z,12.40
2023-03-18T18:03:26.737Z,12.10
2023-03-18T18:05:55.110Z,14.40
2023-03-18T18:08:26.130Z,11.50
2023-03-18T18:10:56.975Z,12.80
2023-03-18T18:13:24.310Z,11.80
2023-03-18T18:15:52.033Z,11.10
2023-03-18T18:18:26.186Z,11.60
2023-03-18T18:20:53.519Z,10.90
2023-03-18T18:23:53.478Z,12.40
2023-03-18T18:26:24.788Z,14.80
2023-03-18T18:28:53.103Z,15.00
2023-03-18T18:31:21.640Z,13.30
2023-03-18T18:33:51.705Z,19.40
2023-03-18T18:36:20.591Z,12.90
2023-03-18T18:38:51.240Z,35.50
2023-03-18T18:41:19.495Z,20.80
2023-03-18T18:43:47.650Z,30.40
2023-03-18T18:46:16.577Z,24.10
2023-03-18T18:48:46.069Z,21.00
2023-03-18T18:51:16.777Z,19.60
2023-03-18T18:53:45.282Z,25.10
2023-03-18T18:56:16.008Z,19.00
2023-03-18T18:58:44.289Z,22.50
2023-03-18T19:01:13.023Z,19.90
2023-03-18T19:03:45.964Z,18.20
2023-03-18T19:06:34.306Z,18.40
2023-03-18T19:09:05.055Z,15.60
2023-03-18T19:11:34.220Z,18.70
2023-03-18T19:14:18.113Z,16.80
2023-03-18T19:16:45.806Z,18.40
2023-03-18T19:19:20.190Z,19.50
2023-03-18T19:21:48.542Z,20.20
2023-03-18T19:24:27.006Z,21.60
2023-03-18T19:26:59.581Z,22.30
2023-03-18T19:29:29.069Z,23.60
2023-03-18T19:31:57.662Z,23.80
2023-03-18T19:34:27.115Z,22.70
2023-03-18T19:36:57.354Z,22.80
2023-03-18T19:39:26.692Z,24.10
2023-03-18T19:41:54.716Z,18.90
2023-03-18T19:44:26.144Z,21.60
2023-03-18T19:46:57.425Z,24.50
2023-03-18T19:49:28.050Z,24.10
2023-03-18T19:51:57.656Z,23.70
2023-03-18T19:54:32.743Z,25.60
2023-03-18T19:57:04.360Z,25.90
2023-03-18T19:59:39.239Z,27.10
2023-03-18T20:02:28.663Z,24.50
2023-03-18T20:05:00.646Z,25.60
2023-03-18T20:07:30.655Z,33.70
2023-03-18T20:09:58.277Z,33.80
2023-03-18T20:12:40.567Z,32.90
2023-03-18T20:15:15.422Z,41.90
2023-03-18T20:17:46.181Z,33.30
2023-03-18T20:20:19.617Z,32.80
2023-03-18T20:23:14.324Z,32.00
2023-03-18T20:25:45.379Z,34.40
2023-03-18T20:28:18.087Z,49.30
2023-03-18T20:30:47.628Z,51.40
2023-03-18T20:33:18.003Z,38.90
2023-03-18T20:35:48.251Z,32.30
2023-03-18T20:38:18.972Z,36.00
2023-03-18T20:40:50.825Z,41.10
2023-03-18T20:43:19.609Z,39.60
2023-03-18T20:45:48.517Z,41.60
2023-03-18T20:48:15.952Z,39.00
2023-03-18T20:50:44.127Z,46.70
2023-03-18T20:53:23.244Z,47.10
2023-03-18T20:55:51.223Z,37.50
2023-03-18T20:58:23.550Z,38.40
2023-03-18T21:00:52.561Z,37.40
2023-03-18T21:03:25.900Z,36.80
2023-03-18T21:05:56.794Z,40.40
2023-03-18T21:08:33.820Z,44.90
2023-03-18T21:11:02.456Z,39.40
2023-03-18T21:13:30.496Z,39.60
2023-03-18T21:15:59.142Z,31.70
2023-03-18T21:18:27.020Z,44.00
2023-03-18T21:20:54.864Z,73.00
2023-03-18T21:23:23.699Z,72.40
2023-03-18T21:25:51.738Z,75.00
2023-03-18T21:28:20.069Z,48.70
2023-03-18T21:30:48.828Z,40.00
2023-03-18T21:33:25.064Z,41.30
2023-03-18T21:35:57.262Z,38.70
2023-03-18T21:38:25.877Z,37.80
2023-03-18T21:40:53.567Z,39.10
2023-03-18T21:43:20.329Z,35.80
2023-03-18T21:45:50.955Z,32.80
2023-03-18T21:48:18.198Z,30.90
2023-03-18T21:50:45.655Z,26.20
2023-03-18T21:53:15.386Z,28.60
2023-03-18T21:55:43.227Z,28.00
2023-03-18T21:58:19.089Z,24.30
2023-03-18T22:00:49.265Z,22.40
2023-03-18T22:03:17.084Z,27.30
2023-03-18T22:05:46.372Z,31.60
2023-03-18T22:08:13.630Z,27.70
2023-03-18T22:10:40.472Z,27.20
2023-03-18T22:13:16.575Z,21.70
2023-03-18T22:15:43.646Z,20.20
2023-03-18T22:18:10.625Z,21.00
2023-03-18T22:20:38.363Z,18.80
2023-03-18T22:23:25.539Z,16.30
2023-03-18T22:25:53.469Z,17.00
2023-03-18T22:28:20.533Z,18.30
2023-03-18T22:30:52.184Z,21.30
2023-03-18T22:33:20.932Z,14.50
2023-03-18T22:35:48.088Z,16.20
2023-03-18T22:38:17.233Z,14.90
2023-03-18T22:40:45.176Z,18.00
2023-03-18T22:43:18.991Z,14.50
2023-03-18T22:45:45.713Z,16.50
2023-03-18T22:48:16.069Z,14.20
2023-03-18T22:50:43.402Z,12.40
2023-03-18T22:53:14.134Z,14.20
2023-03-18T22:55:41.386Z,12.70
2023-03-18T22:58:14.989Z,12.10
2023-03-18T23:00:43.053Z,12.50
2023-03-18T23:03:13.068Z,13.30
2023-03-18T23:05:40.155Z,13.60
2023-03-18T23:08:07.021Z,14.90
2023-03-18T23:10:33.836Z,14.80
2023-03-18T23:13:00.727Z,18.00
2023-03-18T23:15:27.474Z,13.80
2023-03-18T23:17:54.319Z,15.10
2023-03-18T23:20:21.083Z,11.50
2023-03-18T23:22:47.790Z,15.80
2023-03-18T23:25:16.766Z,15.10
2023-03-18T23:27:43.970Z,13.90
2023-03-18T23:30:12.648Z,11.20
2023-03-18T23:32:40.018Z,15.20
2023-03-18T23:35:08.888Z,11.80
2023-03-18T23:37:35.821Z,14.10
2023-03-18T23:40:03.362Z,12.70
2023-03-18T23:42:30.174Z,13.80
2023-03-18T23:44:56.932Z,12.10
2023-03-18T23:47:23.684Z,11.80
2023-03-18T23:49:50.436Z,12.20
2023-03-18T23:52:17.230Z,13.60
2023-03-18T23:54:44.077Z,16.30
2023-03-18T23:57:11.428Z,13.10
2023-03-18T23:59:38.646Z,17.30
